Time;durP1;ratioP1;P1;durP2;ratioP2;P2;SDS_P1;SDS_P2;PMS_P1;PMS_P2;Temp;Humidity;BMP_temperature;BMP_pressure;BME280_temperature;BME280_humidity;BME280_pressure;Samples;Min_cycle;Max_cycle;Signal;HPM_P1;HPM_P2
2021/09/09 00:01:50;;;;;;;19.40;16.97;;;15.50;99.90;;;;;;5055912;28;20883;-81
2021/09/09 00:04:17;;;;;;;20.57;18.47;;;15.60;99.90;;;;;;5055758;28;20535;-81
2021/09/09 00:06:43;;;;;;;20.40;18.40;;;15.50;99.90;;;;;;5055657;28;20543;-81
2021/09/09 00:09:10;;;;;;;18.47;16.67;;;15.40;99.90;;;;;;5055766;28;20922;-80
2021/09/09 00:11:36;;;;;;;22.30;18.77;;;15.40;99.90;;;;;;5055890;28;20488;-81
2021/09/09 00:14:03;;;;;;;19.77;17.77;;;15.40;99.90;;;;;;5055853;28;20539;-80
2021/09/09 00:16:29;;;;;;;23.93;18.43;;;15.40;99.90;;;;;;5055426;28;20506;-80
2021/09/09 00:18:57;;;;;;;19.07;17.13;;;15.40;99.90;;;;;;5055720;28;20540;-81
2021/09/09 00:21:24;;;;;;;19.80;17.90;;;15.40;99.90;;;;;;5055504;28;20539;-81
2021/09/09 00:23:50;;;;;;;19.40;17.40;;;15.40;99.90;;;;;;5055390;28;20894;-81
2021/09/09 00:26:17;;;;;;;18.60;16.60;;;15.30;99.90;;;;;;5055617;28;21027;-80
2021/09/09 00:28:43;;;;;;;21.07;18.93;;;15.30;99.90;;;;;;5055505;28;20452;-80
2021/09/09 00:31:10;;;;;;;19.70;17.53;;;15.20;99.90;;;;;;5055437;28;20545;-80
2021/09/09 00:33:37;;;;;;;19.90;16.70;;;15.20;99.90;;;;;;5055253;28;20491;-80
2021/09/09 00:36:05;;;;;;;20.90;18.53;;;15.20;99.90;;;;;;5055489;28;20499;-82
2021/09/09 00:38:32;;;;;;;19.33;17.43;;;15.10;99.90;;;;;;5054018;28;20516;-81
2021/09/09 00:40:59;;;;;;;20.80;18.80;;;15.10;99.90;;;;;;5055435;28;20907;-81
2021/09/09 00:43:25;;;;;;;20.60;18.50;;;15.10;99.90;;;;;;5055205;28;20448;-82
2021/09/09 00:45:53;;;;;;;23.07;19.67;;;15.10;99.90;;;;;;5054918;28;20543;-81
2021/09/09 00:48:20;;;;;;;19.43;17.50;;;15.10;99.90;;;;;;5055062;28;20492;-81
2021/09/09 00:50:46;;;;;;;23.07;18.30;;;15.00;99.90;;;;;;5055011;28;20484;-81
2021/09/09 00:53:15;;;;;;;21.13;17.87;;;15.00;99.90;;;;;;5055352;28;20495;-81
2021/09/09 00:55:41;;;;;;;20.60;18.37;;;15.00;99.90;;;;;;5055113;28;21124;-81
2021/09/09 00:58:09;;;;;;;20.00;18.00;;;15.00;99.90;;;;;;5054941;28;20922;-81
2021/09/09 01:00:36;;;;;;;22.17;20.07;;;14.90;99.90;;;;;;5055058;28;20527;-81
2021/09/09 01:03:03;;;;;;;20.33;18.33;;;14.90;99.90;;;;;;5055041;28;20532;-81
2021/09/09 01:05:30;;;;;;;20.63;18.53;;;14.90;99.90;;;;;;5055259;28;20875;-81
2021/09/09 01:07:57;;;;;;;21.80;17.60;;;14.80;99.90;;;;;;5054741;28;20717;-81
2021/09/09 01:10:25;;;;;;;20.77;18.47;;;14.80;99.90;;;;;;5054490;28;20839;-80
2021/09/09 01:12:52;;;;;;;19.90;17.90;;;14.80;99.90;;;;;;5054650;28;20480;-80
2021/09/09 01:15:18;;;;;;;19.27;17.50;;;14.80;99.90;;;;;;5054917;28;21009;-80
2021/09/09 01:17:45;;;;;;;19.23;17.43;;;14.80;99.90;;;;;;5054475;28;20507;-80
2021/09/09 01:20:12;;;;;;;18.20;16.30;;;14.80;99.90;;;;;;5054715;28;20545;-81
2021/09/09 01:22:39;;;;;;;19.40;17.40;;;14.80;99.90;;;;;;5054331;28;20502;-80
2021/09/09 01:25:09;;;;;;;19.03;17.17;;;14.80;99.90;;;;;;5054642;28;20526;-81
2021/09/09 01:27:36;;;;;;;18.57;16.67;;;14.80;99.90;;;;;;5054237;28;20467;-80
2021/09/09 01:30:04;;;;;;;19.87;17.97;;;14.80;99.90;;;;;;5054083;28;20484;-80
2021/09/09 01:32:30;;;;;;;20.20;18.10;;;14.80;99.90;;;;;;5054522;28;20483;-80
2021/09/09 01:34:57;;;;;;;18.60;16.70;;;14.80;99.90;;;;;;5054061;28;20479;-80
2021/09/09 01:37:24;;;;;;;20.60;18.07;;;14.80;99.90;;;;;;5054119;28;20990;-80
2021/09/09 01:39:50;;;;;;;22.83;19.17;;;14.70;99.90;;;;;;5054023;28;20895;-81
2021/09/09 01:42:18;;;;;;;19.67;17.23;;;14.70;99.90;;;;;;5053906;28;20923;-81
2021/09/09 01:44:45;;;;;;;19.87;17.87;;;14.70;99.90;;;;;;5053556;28;20505;-80
2021/09/09 01:47:11;;;;;;;19.80;17.80;;;14.60;99.90;;;;;;5054197;28;20456;-81
2021/09/09 01:49:39;;;;;;;19.30;17.30;;;14.60;99.90;;;;;;5053821;28;20459;-80
2021/09/09 01:52:06;;;;;;;19.53;17.30;;;14.50;99.90;;;;;;5053899;28;20487;-80
2021/09/09 01:54:32;;;;;;;19.40;17.50;;;14.50;99.90;;;;;;5053530;28;20452;-80
2021/09/09 01:56:59;;;;;;;20.30;18.30;;;14.50;99.90;;;;;;5052828;28;20522;-80
2021/09/09 01:59:27;;;;;;;21.80;18.40;;;14.50;99.90;;;;;;5053700;28;20495;-81
2021/09/09 02:01:53;;;;;;;18.90;17.10;;;14.40;99.90;;;;;;5053866;28;20488;-80
2021/09/09 02:04:20;;;;;;;18.20;16.43;;;14.40;99.90;;;;;;5053729;28;20506;-81
2021/09/09 02:06:46;;;;;;;20.43;18.33;;;14.40;99.90;;;;;;5053670;28;20971;-80
2021/09/09 02:09:13;;;;;;;20.93;17.67;;;14.40;99.90;;;;;;5053786;28;20903;-81
2021/09/09 02:11:39;;;;;;;20.80;17.90;;;14.40;99.90;;;;;;5053739;28;20480;-81
2021/09/09 02:14:06;;;;;;;19.03;17.20;;;14.30;99.90;;;;;;5053775;28;20484;-81
2021/09/09 02:16:34;;;;;;;20.70;17.97;;;14.30;99.90;;;;;;5053619;28;20476;-81
2021/09/09 02:19:00;;;;;;;20.77;17.30;;;14.30;99.90;;;;;;5053327;28;20526;-81
2021/09/09 02:21:27;;;;;;;20.53;17.97;;;14.20;99.90;;;;;;5053527;28;20477;-81
2021/09/09 02:23:54;;;;;;;19.87;17.93;;;14.20;99.90;;;;;;5053427;28;20448;-81
2021/09/09 02:26:20;;;;;;;19.53;17.50;;;14.20;99.90;;;;;;5053349;28;21010;-81
2021/09/09 02:28:47;;;;;;;18.20;16.50;;;14.20;99.90;;;;;;5053638;28;20475;-81
2021/09/09 02:31:13;;;;;;;19.27;17.33;;;14.20;99.90;;;;;;5053615;28;20491;-81
2021/09/09 02:33:41;;;;;;;18.93;17.00;;;14.10;99.90;;;;;;5053411;28;20476;-81
2021/09/09 02:36:08;;;;;;;18.47;16.77;;;14.10;99.90;;;;;;5052977;28;20484;-80
2021/09/09 02:38:35;;;;;;;18.30;16.37;;;14.10;99.90;;;;;;5052965;28;20483;-80
2021/09/09 02:41:01;;;;;;;20.20;18.07;;;14.10;99.90;;;;;;5052805;28;20547;-81
2021/09/09 02:43:28;;;;;;;18.70;16.73;;;14.10;99.90;;;;;;5053106;28;20479;-80
2021/09/09 02:45:55;;;;;;;17.30;15.60;;;14.10;99.90;;;;;;5053242;28;20554;-80
2021/09/09 02:48:21;;;;;;;20.37;18.23;;;14.10;99.90;;;;;;5053135;28;20952;-80
2021/09/09 02:50:49;;;;;;;18.30;15.90;;;14.10;99.90;;;;;;5052918;28;20452;-81
2021/09/09 02:53:16;;;;;;;18.00;16.10;;;14.10;99.90;;;;;;5053157;28;20506;-81
2021/09/09 02:55:42;;;;;;;19.90;17.90;;;14.00;99.90;;;;;;5053122;28;20499;-81
2021/09/09 02:58:09;;;;;;;18.53;16.40;;;14.00;99.90;;;;;;5052994;28;20519;-81
2021/09/09 03:00:35;;;;;;;19.67;17.37;;;14.00;99.90;;;;;;5053111;28;20538;-81
2021/09/09 03:03:03;;;;;;;18.10;16.30;;;13.90;99.90;;;;;;5053001;28;20452;-81
2021/09/09 03:05:30;;;;;;;19.23;17.43;;;13.90;99.90;;;;;;5053052;28;20543;-81
2021/09/09 03:07:58;;;;;;;18.73;16.90;;;13.90;99.90;;;;;;5052905;28;20452;-81
2021/09/09 03:10:24;;;;;;;17.47;15.77;;;13.80;99.90;;;;;;5057067;28;20551;-81
2021/09/09 03:12:51;;;;;;;18.60;16.40;;;13.80;99.90;;;;;;5057106;28;20448;-81
2021/09/09 03:15:17;;;;;;;20.70;17.70;;;13.80;99.90;;;;;;5057202;28;20479;-81
2021/09/09 03:17:44;;;;;;;18.10;16.40;;;13.80;99.90;;;;;;5056962;28;21045;-81
2021/09/09 03:20:12;;;;;;;17.43;15.73;;;13.80;99.90;;;;;;5056974;28;20460;-81
2021/09/09 03:22:39;;;;;;;19.10;17.17;;;13.80;99.90;;;;;;5056620;28;20452;-81
2021/09/09 03:25:07;;;;;;;17.87;16.10;;;13.70;99.90;;;;;;5057071;28;20606;-81
2021/09/09 03:27:34;;;;;;;18.20;16.23;;;13.80;99.90;;;;;;5057137;28;20487;-81
2021/09/09 03:30:00;;;;;;;18.90;16.20;;;13.70;99.90;;;;;;5056921;28;20487;-81
2021/09/09 03:32:27;;;;;;;18.00;16.20;;;13.70;99.90;;;;;;5056754;28;21011;-81
2021/09/09 03:34:53;;;;;;;18.23;16.33;;;13.70;99.90;;;;;;5056298;28;20486;-80
2021/09/09 03:37:20;;;;;;;17.10;15.40;;;13.60;99.90;;;;;;5056346;28;20453;-80
2021/09/09 03:39:47;;;;;;;17.63;15.83;;;13.60;99.90;;;;;;5056341;28;20947;-80
2021/09/09 03:42:15;;;;;;;19.53;16.90;;;13.60;99.90;;;;;;5056251;28;20487;-80
2021/09/09 03:44:41;;;;;;;17.60;15.80;;;13.60;99.90;;;;;;5055860;28;20997;-80
2021/09/09 03:47:08;;;;;;;18.20;16.50;;;13.60;99.90;;;;;;5056016;28;20497;-80
2021/09/09 03:49:36;;;;;;;17.90;16.00;;;13.60;99.90;;;;;;5056169;28;21010;-80
2021/09/09 03:52:03;;;;;;;16.73;15.03;;;13.60;99.90;;;;;;5056409;28;20507;-81
2021/09/09 03:54:29;;;;;;;18.93;17.13;;;13.60;99.90;;;;;;5056343;28;20456;-81
2021/09/09 03:56:56;;;;;;;18.40;16.13;;;13.60;99.90;;;;;;5055966;28;20487;-80
2021/09/09 03:59:24;;;;;;;19.57;16.47;;;13.60;99.90;;;;;;5055978;28;20523;-81
2021/09/09 04:01:50;;;;;;;19.20;17.20;;;13.50;99.90;;;;;;5056421;28;20479;-81
2021/09/09 04:04:17;;;;;;;18.90;17.10;;;13.50;99.90;;;;;;5055776;28;20475;-80
2021/09/09 04:06:43;;;;;;;18.87;16.83;;;13.50;99.90;;;;;;5055863;28;20484;-81
2021/09/09 04:09:10;;;;;;;17.50;15.73;;;13.40;99.90;;;;;;5055604;28;20951;-81
2021/09/09 04:11:37;;;;;;;18.67;16.77;;;13.40;99.90;;;;;;5055711;28;20490;-81
2021/09/09 04:14:03;;;;;;;17.17;15.47;;;13.40;99.90;;;;;;5055960;28;20480;-80
2021/09/09 04:16:31;;;;;;;18.10;16.30;;;13.50;99.90;;;;;;5055686;28;20448;-80
2021/09/09 04:18:59;;;;;;;18.43;16.60;;;13.40;99.90;;;;;;5055974;28;20530;-81
2021/09/09 04:21:25;;;;;;;20.30;15.83;;;13.40;99.90;;;;;;5055043;28;20526;-81
2021/09/09 04:23:52;;;;;;;17.53;15.73;;;13.40;99.90;;;;;;5056100;28;20477;-81
2021/09/09 04:26:18;;;;;;;17.67;15.93;;;13.40;99.90;;;;;;5055594;28;20480;-81
2021/09/09 04:28:45;;;;;;;17.93;16.20;;;13.40;99.90;;;;;;5055710;28;20451;-81
2021/09/09 04:31:11;;;;;;;20.37;17.20;;;13.40;99.90;;;;;;5055353;28;20452;-81
2021/09/09 04:33:39;;;;;;;19.53;17.63;;;13.40;99.90;;;;;;5055502;28;20539;-81
2021/09/09 04:36:06;;;;;;;17.87;16.13;;;13.40;99.90;;;;;;5055693;28;20453;-81
2021/09/09 04:38:32;;;;;;;21.63;18.07;;;13.30;99.90;;;;;;5055203;28;20515;-80
2021/09/09 04:40:59;;;;;;;17.67;15.97;;;13.30;99.90;;;;;;5055547;28;20484;-80
2021/09/09 04:43:25;;;;;;;19.00;17.10;;;13.40;99.90;;;;;;5055138;28;20547;-80
2021/09/09 04:45:52;;;;;;;19.70;16.70;;;13.40;99.90;;;;;;5055108;28;20445;-80
2021/09/09 04:48:18;;;;;;;19.43;17.33;;;13.40;99.90;;;;;;5055145;28;20472;-80
2021/09/09 04:50:46;;;;;;;20.70;16.97;;;13.40;99.90;;;;;;5055400;28;20491;-81
2021/09/09 04:53:13;;;;;;;20.07;18.10;;;13.40;99.90;;;;;;5055161;28;20484;-81
2021/09/09 04:55:39;;;;;;;22.80;20.30;;;13.40;99.90;;;;;;5055171;28;20491;-81
2021/09/09 04:58:06;;;;;;;19.67;17.67;;;13.50;99.90;;;;;;5055158;28;20558;-81
2021/09/09 05:00:32;;;;;;;18.50;16.50;;;13.50;99.90;;;;;;5055094;28;20986;-80
2021/09/09 05:02:59;;;;;;;17.50;15.77;;;13.50;99.90;;;;;;5055311;28;20563;-80
2021/09/09 05:05:25;;;;;;;18.23;16.23;;;13.60;99.90;;;;;;5055153;28;20480;-80
2021/09/09 05:07:53;;;;;;;18.60;16.70;;;13.60;99.90;;;;;;5054740;28;20975;-79
2021/09/09 05:10:20;;;;;;;19.40;17.40;;;13.60;99.90;;;;;;5054860;28;20456;-81
2021/09/09 05:12:46;;;;;;;17.20;15.47;;;13.60;99.90;;;;;;5054642;28;20544;-81
2021/09/09 05:15:13;;;;;;;18.93;16.53;;;13.60;99.90;;;;;;5054439;28;20527;-80
2021/09/09 05:17:39;;;;;;;19.73;16.37;;;13.70;99.90;;;;;;5054421;28;20547;-80
2021/09/09 05:20:07;;;;;;;18.63;16.73;;;13.70;99.90;;;;;;5054429;28;20463;-80
2021/09/09 05:22:34;;;;;;;17.90;16.10;;;13.80;99.90;;;;;;5054142;28;20449;-78
2021/09/09 05:25:02;;;;;;;20.67;17.03;;;13.80;99.90;;;;;;5054269;28;20499;-80
2021/09/09 05:27:29;;;;;;;18.37;16.60;;;13.90;99.90;;;;;;5054113;28;20457;-80
2021/09/09 05:29:56;;;;;;;20.73;17.10;;;13.90;99.90;;;;;;5054614;28;20464;-79
2021/09/09 05:32:22;;;;;;;17.30;15.27;;;13.90;99.90;;;;;;5054136;28;20551;-80
2021/09/09 05:34:49;;;;;;;18.60;16.70;;;14.00;99.90;;;;;;5054106;28;20875;-79
2021/09/09 05:37:15;;;;;;;17.77;16.03;;;14.10;99.90;;;;;;5051972;28;20859;-79
2021/09/09 05:39:43;;;;;;;17.83;16.00;;;14.10;99.90;;;;;;5053498;28;20874;-79
2021/09/09 05:42:11;;;;;;;19.70;17.80;;;14.20;99.90;;;;;;5050584;28;20494;-80
2021/09/09 05:44:37;;;;;;;17.50;15.70;;;14.30;99.90;;;;;;5052931;28;20472;-80
2021/09/09 05:47:04;;;;;;;17.37;15.77;;;14.40;99.90;;;;;;5050949;28;20860;-79
2021/09/09 05:49:31;;;;;;;18.93;16.50;;;14.50;99.90;;;;;;5052791;28;20952;-80
2021/09/09 05:51:57;;;;;;;17.70;15.67;;;14.60;99.90;;;;;;5053262;28;20476;-81
2021/09/09 05:54:24;;;;;;;17.03;15.33;;;14.70;99.90;;;;;;5052137;28;20480;-81
2021/09/09 05:56:50;;;;;;;17.27;15.67;;;14.80;99.90;;;;;;5053330;28;20484;-81
2021/09/09 05:59:18;;;;;;;17.53;15.83;;;15.00;99.90;;;;;;5053839;28;20484;-80
2021/09/09 06:01:46;;;;;;;18.23;15.13;;;15.10;99.90;;;;;;5053623;28;20452;-79
2021/09/09 06:04:14;;;;;;;18.60;16.63;;;15.20;99.90;;;;;;5053512;28;20452;-78
2021/09/09 06:06:40;;;;;;;17.17;15.50;;;15.30;99.90;;;;;;5053373;28;20455;-78
2021/09/09 06:09:07;;;;;;;15.53;14.10;;;15.40;99.90;;;;;;5053103;28;20448;-79
2021/09/09 06:11:39;;;;;;;17.40;15.70;;;15.50;99.90;;;;;;5053392;28;20441;-79
2021/09/09 06:14:06;;;;;;;14.03;12.70;;;15.60;99.90;;;;;;5053352;28;20464;-78
2021/09/09 06:16:34;;;;;;;17.30;14.23;;;15.70;99.90;;;;;;5053582;28;20480;-80
2021/09/09 06:19:01;;;;;;;14.67;13.10;;;15.90;99.90;;;;;;5053355;28;20950;-82
2021/09/09 06:21:28;;;;;;;13.57;12.27;;;16.00;99.90;;;;;;5053100;28;20444;-80
2021/09/09 06:23:54;;;;;;;13.80;12.40;;;16.20;99.90;;;;;;5053315;28;20539;-81
2021/09/09 06:26:21;;;;;;;13.07;11.77;;;16.40;99.90;;;;;;5049257;28;20457;-79
2021/09/09 06:28:48;;;;;;;16.10;12.70;;;16.60;99.90;;;;;;5053010;28;20448;-79
2021/09/09 06:31:15;;;;;;;12.77;11.47;;;16.70;99.90;;;;;;5050422;28;20932;-78
2021/09/09 06:33:43;;;;;;;10.87;9.73;;;16.90;99.90;;;;;;5052736;28;20962;-75
2021/09/09 06:38:50;;;;;;;10.47;9.57;;;17.30;99.90;;;;;;5050249;28;21020;-77
2021/09/09 06:41:17;;;;;;;10.53;9.43;;;17.50;99.90;;;;;;5051964;28;20951;-79
2021/09/09 06:43:43;;;;;;;10.73;9.60;;;17.70;99.90;;;;;;5052201;28;21058;-76
2021/09/09 06:46:10;;;;;;;11.13;10.03;;;17.90;99.90;;;;;;5052738;28;20999;-77
2021/09/09 06:48:36;;;;;;;10.73;9.73;;;18.20;99.90;;;;;;5052900;28;20488;-77
2021/09/09 06:51:05;;;;;;;9.87;8.97;;;18.50;99.90;;;;;;5052566;28;20484;-77
2021/09/09 06:53:32;;;;;;;10.47;8.37;;;18.70;99.90;;;;;;5052931;28;20892;-76
2021/09/09 06:55:58;;;;;;;10.73;8.40;;;19.00;99.90;;;;;;5052772;28;20452;-77
2021/09/09 06:58:25;;;;;;;10.47;9.30;;;19.20;99.90;;;;;;5052487;28;20480;-77
2021/09/09 07:00:52;;;;;;;11.17;8.97;;;19.50;99.90;;;;;;5052421;28;20480;-77
2021/09/09 07:03:18;;;;;;;9.90;9.00;;;19.70;99.90;;;;;;5052428;28;20506;-77
2021/09/09 07:05:45;;;;;;;8.83;8.03;;;19.80;99.90;;;;;;5052272;28;20959;-77
2021/09/09 07:08:13;;;;;;;9.73;8.00;;;19.90;99.90;;;;;;5052734;28;20480;-77
2021/09/09 07:10:39;;;;;;;10.00;8.03;;;20.00;99.90;;;;;;5052730;28;20891;-77
2021/09/09 07:13:06;;;;;;;9.70;7.73;;;20.20;99.90;;;;;;5052608;28;20999;-79
2021/09/09 07:15:32;;;;;;;9.00;8.10;;;20.30;99.90;;;;;;5052463;28;20535;-80
2021/09/09 07:17:59;;;;;;;9.43;8.43;;;20.40;99.90;;;;;;5052368;28;20452;-77
2021/09/09 07:20:26;;;;;;;11.53;7.87;;;20.50;99.90;;;;;;5052534;28;20906;-77
2021/09/09 07:22:52;;;;;;;8.50;7.60;;;20.60;99.90;;;;;;5052147;28;20536;-80
2021/09/09 07:25:20;;;;;;;9.80;7.00;;;20.70;99.90;;;;;;5052587;28;20530;-77
2021/09/09 07:27:47;;;;;;;8.40;7.50;;;20.80;99.90;;;;;;5052252;28;20483;-81
2021/09/09 07:30:13;;;;;;;10.30;7.80;;;20.80;99.90;;;;;;5052346;28;20886;-77
2021/09/09 07:32:40;;;;;;;14.23;7.67;;;20.90;99.90;;;;;;5052153;28;20863;-77
2021/09/09 07:35:09;;;;;;;7.53;6.83;;;20.90;99.90;;;;;;5052195;28;20484;-77
2021/09/09 07:37:35;;;;;;;9.80;7.70;;;21.00;99.90;;;;;;5052323;28;20463;-77
2021/09/09 07:40:02;;;;;;;8.50;7.13;;;21.10;99.90;;;;;;5052273;28;20516;-77
2021/09/09 07:42:30;;;;;;;8.80;7.00;;;21.10;99.90;;;;;;5052245;28;20491;-77
2021/09/09 07:44:56;;;;;;;11.83;7.20;;;21.20;99.90;;;;;;5051979;28;20519;-77
2021/09/09 07:47:23;;;;;;;7.10;6.40;;;21.20;99.90;;;;;;5052071;28;20858;-77
2021/09/09 07:49:49;;;;;;;10.27;7.37;;;21.20;99.90;;;;;;5052337;28;20472;-77
2021/09/09 07:52:16;;;;;;;7.27;6.67;;;21.20;99.90;;;;;;5052215;28;20471;-77
2021/09/09 07:54:43;;;;;;;8.00;6.53;;;21.20;99.90;;;;;;5051631;28;20539;-77
2021/09/09 07:57:09;;;;;;;7.60;6.90;;;21.20;99.90;;;;;;5055801;28;20538;-77
2021/09/09 07:59:37;;;;;;;8.67;6.93;;;21.10;99.90;;;;;;5055648;28;21036;-77
2021/09/09 08:02:04;;;;;;;9.40;6.33;;;21.10;99.90;;;;;;5055735;28;20871;-77
2021/09/09 08:04:30;;;;;;;6.90;6.30;;;21.00;99.90;;;;;;5055857;28;20448;-77
2021/09/09 08:06:57;;;;;;;6.70;6.10;;;20.90;99.90;;;;;;5055905;28;20492;-77
2021/09/09 08:09:24;;;;;;;6.93;6.10;;;20.80;99.90;;;;;;5055216;28;21005;-77
2021/09/09 08:11:50;;;;;;;7.10;6.40;;;20.80;99.90;;;;;;5055725;28;20547;-77
2021/09/09 08:14:17;;;;;;;7.17;6.47;;;20.70;99.90;;;;;;5055400;28;20548;-77
2021/09/09 08:16:44;;;;;;;8.53;6.67;;;20.70;99.90;;;;;;5055662;28;20535;-78
2021/09/09 08:19:11;;;;;;;7.23;6.50;;;20.60;99.90;;;;;;5055473;28;20508;-77
2021/09/09 08:21:38;;;;;;;6.87;6.27;;;20.50;99.90;;;;;;5055469;28;20994;-77
2021/09/09 08:24:05;;;;;;;6.50;5.67;;;20.50;99.90;;;;;;5055376;28;20452;-78
2021/09/09 08:26:32;;;;;;;6.30;5.70;;;20.50;99.90;;;;;;5055330;28;20463;-77
2021/09/09 08:28:58;;;;;;;9.33;7.10;;;20.50;99.90;;;;;;5055152;28;20994;-78
2021/09/09 08:31:27;;;;;;;9.40;6.27;;;20.50;99.90;;;;;;5055326;28;20518;-81
2021/09/09 08:33:55;;;;;;;10.90;7.00;;;20.50;99.90;;;;;;5055179;28;20456;-78
2021/09/09 08:36:22;;;;;;;8.73;7.00;;;20.40;99.90;;;;;;5054937;28;20456;-78
2021/09/09 08:38:49;;;;;;;6.93;5.50;;;20.40;99.90;;;;;;5055073;28;20448;-77
2021/09/09 08:41:16;;;;;;;6.90;6.30;;;20.40;99.90;;;;;;5054950;28;20498;-78
2021/09/09 08:43:43;;;;;;;6.30;5.73;;;20.50;99.90;;;;;;5054843;28;20813;-77
2021/09/09 08:46:11;;;;;;;6.07;5.63;;;20.50;99.90;;;;;;5055119;28;20495;-77
2021/09/09 08:48:38;;;;;;;6.93;6.23;;;20.50;99.90;;;;;;5054895;28;20459;-77
2021/09/09 08:51:07;;;;;;;8.57;6.13;;;20.50;99.90;;;;;;5054933;28;20544;-77
2021/09/09 08:53:33;;;;;;;9.53;7.20;;;20.50;99.90;;;;;;5054578;28;20498;-77
2021/09/09 08:56:00;;;;;;;10.73;6.17;;;20.50;99.90;;;;;;5054607;28;20460;-77
2021/09/09 08:58:26;;;;;;;6.73;6.13;;;20.50;99.90;;;;;;5054696;28;20456;-78
2021/09/09 09:01:07;;;;;;;7.33;6.60;;;20.50;99.90;;;;;;5054593;28;20575;-77
2021/09/09 09:03:48;;;;;;;8.10;5.30;;;20.50;99.90;;;;;;5054595;28;20452;-77
2021/09/09 09:06:38;;;;;;;6.20;5.50;;;20.50;99.90;;;;;;5054032;28;20447;-77
2021/09/09 09:09:08;;;;;;;6.17;5.63;;;20.50;99.90;;;;;;5054595;28;20467;-78
2021/09/09 09:11:39;;;;;;;7.07;5.93;;;20.60;99.90;;;;;;5054657;28;20455;-77
2021/09/09 09:14:07;;;;;;;9.53;6.20;;;20.50;99.90;;;;;;5054497;28;20866;-81
2021/09/09 09:16:34;;;;;;;8.17;6.20;;;20.60;99.90;;;;;;5054270;28;20440;-77
2021/09/09 09:19:01;;;;;;;8.63;6.07;;;20.60;99.90;;;;;;5054265;28;20484;-78
2021/09/09 09:21:30;;;;;;;6.77;6.07;;;20.60;99.90;;;;;;5054404;28;20551;-77
2021/09/09 09:24:01;;;;;;;6.70;6.17;;;20.70;99.90;;;;;;5054350;28;20502;-78
2021/09/09 09:26:28;;;;;;;7.33;6.07;;;20.70;99.90;;;;;;5054192;28;20488;-77
2021/09/09 09:28:57;;;;;;;6.80;6.10;;;20.80;99.90;;;;;;5054225;28;20572;-77
2021/09/09 09:31:25;;;;;;;7.53;6.80;;;20.80;99.90;;;;;;5053896;28;20441;-78
2021/09/09 09:33:55;;;;;;;7.27;6.20;;;20.80;99.90;;;;;;5054118;28;20886;-78
2021/09/09 09:36:25;;;;;;;7.33;5.57;;;20.80;99.90;;;;;;5053998;28;20455;-77
2021/09/09 09:38:53;;;;;;;6.10;5.53;;;20.90;99.90;;;;;;5054174;28;20451;-78
2021/09/09 09:41:23;;;;;;;7.50;6.57;;;20.90;99.90;;;;;;5053786;28;20542;-78
2021/09/09 09:43:57;;;;;;;7.60;6.37;;;20.90;99.90;;;;;;5053741;28;20500;-77
2021/09/09 09:46:25;;;;;;;9.90;5.90;;;21.00;99.90;;;;;;5053977;28;20483;-78
2021/09/09 09:48:52;;;;;;;6.73;6.13;;;21.00;99.90;;;;;;5053944;28;20762;-78
2021/09/09 09:51:38;;;;;;;7.10;6.30;;;21.00;99.90;;;;;;5053929;28;20452;-78
2021/09/09 09:54:08;;;;;;;7.50;5.70;;;21.00;99.90;;;;;;5047841;28;20544;-77
2021/09/09 09:56:37;;;;;;;11.40;6.30;;;21.00;99.90;;;;;;5053562;28;20471;-78
2021/09/09 09:59:04;;;;;;;7.83;6.90;;;21.10;99.90;;;;;;5053755;28;20471;-78
2021/09/09 10:01:32;;;;;;;11.60;9.77;;;21.10;99.90;;;;;;5053583;28;20572;-78
2021/09/09 10:04:01;;;;;;;7.50;6.03;;;21.20;99.90;;;;;;5053554;28;20985;-78
2021/09/09 10:06:29;;;;;;;6.00;5.50;;;21.30;99.90;;;;;;5053331;28;20502;-78
2021/09/09 10:08:56;;;;;;;8.90;6.07;;;21.30;99.90;;;;;;5053442;28;20506;-78
2021/09/09 10:11:23;;;;;;;5.87;5.20;;;21.30;99.90;;;;;;5053210;28;20484;-78
2021/09/09 10:13:51;;;;;;;6.97;6.27;;;21.40;99.90;;;;;;5053565;28;20476;-78
2021/09/09 10:16:22;;;;;;;10.00;5.87;;;21.40;99.90;;;;;;5053178;28;20483;-78
2021/09/09 10:18:48;;;;;;;9.40;5.70;;;21.40;99.90;;;;;;5052591;28;20476;-78
2021/09/09 10:21:37;;;;;;;15.10;13.60;;;21.50;99.90;;;;;;5052832;28;20515;-79
2021/09/09 10:24:13;;;;;;;8.87;6.40;;;21.50;99.90;;;;;;5053272;28;20452;-78
2021/09/09 10:26:39;;;;;;;7.23;6.30;;;21.50;99.90;;;;;;5053168;28;20455;-78
2021/09/09 10:29:09;;;;;;;10.47;6.20;;;21.60;99.90;;;;;;5053445;28;20444;-78
2021/09/09 10:31:41;;;;;;;6.43;5.63;;;21.60;99.90;;;;;;5052890;28;20452;-81
2021/09/09 10:34:10;;;;;;;8.17;5.27;;;21.60;99.90;;;;;;5053021;28;20456;-78
2021/09/09 10:36:46;;;;;;;6.53;5.50;;;21.60;99.90;;;;;;5052830;28;20817;-78
2021/09/09 10:39:14;;;;;;;6.07;5.47;;;21.70;99.90;;;;;;5053020;28;20506;-78
2021/09/09 10:41:41;;;;;;;6.40;5.77;;;21.70;99.90;;;;;;5052778;28;20578;-78
2021/09/09 10:44:10;;;;;;;7.27;6.67;;;21.80;99.90;;;;;;5052344;28;20515;-78
2021/09/09 10:46:39;;;;;;;6.40;5.80;;;21.80;99.90;;;;;;5052508;28;20475;-78
2021/09/09 10:49:17;;;;;;;9.13;6.17;;;21.90;99.90;;;;;;5052693;28;20840;-78
2021/09/09 10:52:09;;;;;;;6.17;5.73;;;22.00;99.90;;;;;;5051980;28;20487;-78
2021/09/09 10:55:01;;;;;;;6.10;5.60;;;22.00;99.90;;;;;;5033216;28;20456;-78
2021/09/09 10:57:27;;;;;;;6.83;5.33;;;22.00;99.90;;;;;;5052765;28;20535;-78
2021/09/09 10:59:55;;;;;;;6.27;5.73;;;22.00;99.90;;;;;;5052573;28;20511;-78
2021/09/09 11:02:22;;;;;;;6.40;5.40;;;22.10;99.90;;;;;;5052344;28;20859;-78
2021/09/09 11:04:49;;;;;;;6.03;4.97;;;22.10;99.90;;;;;;5052632;28;20456;-78
2021/09/09 11:07:23;;;;;;;6.93;6.17;;;22.20;99.90;;;;;;5052335;28;20540;-78
2021/09/09 11:10:04;;;;;;;6.60;5.80;;;22.20;99.90;;;;;;5052675;28;20459;-78
2021/09/09 11:12:35;;;;;;;5.47;5.07;;;22.30;99.90;;;;;;5052919;28;20484;-78
2021/09/09 11:15:06;;;;;;;6.10;5.20;;;22.40;99.90;;;;;;5052402;28;20452;-78
2021/09/09 11:17:32;;;;;;;8.47;6.10;;;22.40;99.90;;;;;;5052485;28;20453;-79
2021/09/09 11:20:04;;;;;;;5.50;5.10;;;22.50;99.90;;;;;;5052685;28;20531;-78
2021/09/09 11:22:31;;;;;;;6.20;5.60;;;22.50;99.90;;;;;;5052582;28;20448;-78
2021/09/09 11:24:59;;;;;;;6.00;5.50;;;22.50;99.90;;;;;;5052554;28;20480;-76
2021/09/09 11:27:29;;;;;;;6.13;5.63;;;22.50;99.90;;;;;;5052343;28;20484;-76
2021/09/09 11:29:57;;;;;;;9.93;5.33;;;22.60;99.90;;;;;;5054225;28;20455;-79
2021/09/09 11:32:26;;;;;;;6.97;5.47;;;22.50;99.90;;;;;;5056376;28;20441;-78
2021/09/09 11:34:52;;;;;;;5.87;5.40;;;22.50;99.90;;;;;;5056254;28;20494;-78
2021/09/09 11:37:19;;;;;;;5.67;5.20;;;22.60;99.90;;;;;;5056255;28;20448;-78
2021/09/09 11:39:45;;;;;;;21.93;16.70;;;22.60;99.90;;;;;;5056079;28;20535;-78
2021/09/09 11:42:12;;;;;;;9.23;6.90;;;22.60;99.90;;;;;;5055873;28;20452;-78
2021/09/09 11:44:41;;;;;;;9.93;6.87;;;22.70;99.90;;;;;;5055716;28;20506;-79
2021/09/09 11:47:12;;;;;;;11.53;6.17;;;22.70;99.90;;;;;;5056141;28;20526;-78
2021/09/09 11:49:40;;;;;;;6.17;5.67;;;22.70;99.90;;;;;;5056093;28;20476;-78
2021/09/09 11:52:09;;;;;;;5.57;5.07;;;22.80;99.90;;;;;;5056016;28;20457;-78
2021/09/09 11:54:36;;;;;;;6.07;5.37;;;22.80;99.90;;;;;;5040796;28;20481;-78
2021/09/09 11:57:05;;;;;;;5.77;5.27;;;22.90;99.90;;;;;;5035761;28;20574;-78
2021/09/09 11:59:33;;;;;;;7.40;6.70;;;22.90;99.90;;;;;;5036099;28;20528;-78
2021/09/09 12:02:06;;;;;;;8.33;6.10;;;22.90;99.90;;;;;;5035879;28;20487;-79
2021/09/09 12:04:37;;;;;;;14.77;5.43;;;22.90;99.90;;;;;;5035970;28;20498;-79
2021/09/09 12:07:06;;;;;;;6.00;5.43;;;23.00;99.90;;;;;;5035748;28;20532;-78
2021/09/09 12:09:37;;;;;;;8.27;7.47;;;23.00;99.90;;;;;;5035721;28;20484;-79
2021/09/09 12:12:05;;;;;;;8.87;7.80;;;23.00;99.90;;;;;;5035753;28;20476;-78
2021/09/09 12:14:32;;;;;;;9.40;8.10;;;23.00;99.90;;;;;;5036949;28;20454;-78
2021/09/09 12:17:12;;;;;;;6.40;5.80;;;23.10;99.90;;;;;;5055502;28;20854;-78
2021/09/09 12:20:00;;;;;;;5.43;5.03;;;23.10;99.90;;;;;;5055517;28;20448;-78
2021/09/09 12:22:45;;;;;;;6.90;5.63;;;23.20;99.90;;;;;;5055533;28;20452;-78
2021/09/09 12:25:33;;;;;;;6.43;5.77;;;23.30;99.90;;;;;;5055458;28;20445;-78
2021/09/09 12:28:04;;;;;;;5.87;5.47;;;23.30;99.90;;;;;;5044059;28;20484;-78
2021/09/09 12:30:45;;;;;;;5.90;5.40;;;23.30;99.90;;;;;;5055142;28;20505;-78
2021/09/09 12:33:18;;;;;;;6.10;5.40;;;23.40;99.90;;;;;;5055141;28;20994;-78
2021/09/09 12:36:02;;;;;;;5.60;5.10;;;23.40;99.90;;;;;;5055031;28;20448;-78
2021/09/09 12:38:31;;;;;;;7.67;5.40;;;23.40;99.90;;;;;;5055181;28;20460;-79
2021/09/09 12:40:58;;;;;;;5.87;5.40;;;23.40;99.90;;;;;;5054115;28;20482;-78
2021/09/09 12:43:31;;;;;;;5.40;5.00;;;23.40;99.90;;;;;;5054843;28;20506;-79